sensor_id;sensor_type;location;lat;lon;timestamp;temperature;humidity
63931;DHT22;50111;48.114;-2.066;2022-12-07T00:01:32;0.60;99.90
63931;DHT22;50111;48.114;-2.066;2022-12-07T00:03:58;0.50;99.90
63931;DHT22;50111;48.114;-2.066;2022-12-07T00:06:30;0.50;99.90
63931;DHT22;50111;48.114;-2.066;2022-12-07T00:08:58;0.50;99.90
63931;DHT22;50111;48.114;-2.066;2022-12-07T00:11:24;0.40;99.90
63931;DHT22;50111;48.114;-2.066;2022-12-07T00:13:54;0.30;99.90
63931;DHT22;50111;48.114;-2.066;2022-12-07T00:16:22;0.30;99.90
63931;DHT22;50111;48.114;-2.066;2022-12-07T00:18:48;0.20;99.90
63931;DHT22;50111;48.114;-2.066;2022-12-07T00:21:16;0.20;99.90
63931;DHT22;50111;48.114;-2.066;2022-12-07T00:23:44;0.20;99.90
63931;DHT22;50111;48.114;-2.066;2022-12-07T00:26:15;0.10;99.90
63931;DHT22;50111;48.114;-2.066;2022-12-07T00:28:48;0.20;99.90
63931;DHT22;50111;48.114;-2.066;2022-12-07T00:31:15;0.20;99.90
63931;DHT22;50111;48.114;-2.066;2022-12-07T00:33:41;0.20;99.90
63931;DHT22;50111;48.114;-2.066;2022-12-07T00:36:09;0.20;99.90
63931;DHT22;50111;48.114;-2.066;2022-12-07T00:38:36;0.20;99.90
63931;DHT22;50111;48.114;-2.066;2022-12-07T00:41:05;0.10;99.90
63931;DHT22;50111;48.114;-2.066;2022-12-07T00:43:31;0.00;99.90
63931;DHT22;50111;48.114;-2.066;2022-12-07T00:45:57;0.10;99.90
63931;DHT22;50111;48.114;-2.066;2022-12-07T00:48:23;0.00;99.90
63931;DHT22;50111;48.114;-2.066;2022-12-07T00:50:49;0.00;99.90
63931;DHT22;50111;48.114;-2.066;2022-12-07T00:53:16;-0.10;99.90
63931;DHT22;50111;48.114;-2.066;2022-12-07T00:55:42;0.00;99.90
63931;DHT22;50111;48.114;-2.066;2022-12-07T00:58:08;0.00;99.90
63931;DHT22;50111;48.114;-2.066;2022-12-07T01:00:37;0.00;99.90
63931;DHT22;50111;48.114;-2.066;2022-12-07T01:03:04;-0.10;99.90
63931;DHT22;50111;48.114;-2.066;2022-12-07T01:05:30;-0.10;99.90
63931;DHT22;50111;48.114;-2.066;2022-12-07T01:07:56;-0.10;99.90
63931;DHT22;50111;48.114;-2.066;2022-12-07T01:10:22;-0.10;99.90
63931;DHT22;50111;48.114;-2.066;2022-12-07T01:12:47;-0.20;99.90
63931;DHT22;50111;48.114;-2.066;2022-12-07T01:15:13;-0.20;99.90
63931;DHT22;50111;48.114;-2.066;2022-12-07T01:17:39;-0.30;99.90
63931;DHT22;50111;48.114;-2.066;2022-12-07T01:20:06;-0.50;99.90
63931;DHT22;50111;48.114;-2.066;2022-12-07T01:22:37;-0.50;99.90
63931;DHT22;50111;48.114;-2.066;2022-12-07T01:25:03;-0.50;99.90
63931;DHT22;50111;48.114;-2.066;2022-12-07T01:27:29;-0.40;99.90
63931;DHT22;50111;48.114;-2.066;2022-12-07T01:29:54;-0.40;99.90
63931;DHT22;50111;48.114;-2.066;2022-12-07T01:32:20;-0.40;99.90
63931;DHT22;50111;48.114;-2.066;2022-12-07T01:34:48;-0.40;99.90
63931;DHT22;50111;48.114;-2.066;2022-12-07T01:37:13;-0.40;99.90
63931;DHT22;50111;48.114;-2.066;2022-12-07T01:39:39;-0.40;99.90
63931;DHT22;50111;48.114;-2.066;2022-12-07T01:42:05;-0.50;99.90
63931;DHT22;50111;48.114;-2.066;2022-12-07T01:44:30;-0.40;99.90
63931;DHT22;50111;48.114;-2.066;2022-12-07T01:47:00;-0.50;99.90
63931;DHT22;50111;48.114;-2.066;2022-12-07T01:49:38;-0.60;99.90
63931;DHT22;50111;48.114;-2.066;2022-12-07T01:54:43;-0.50;99.90
63931;DHT22;50111;48.114;-2.066;2022-12-07T01:57:10;-0.60;99.90
63931;DHT22;50111;48.114;-2.066;2022-12-07T01:59:37;-0.60;99.90
63931;DHT22;50111;48.114;-2.066;2022-12-07T02:02:07;-0.70;99.90
63931;DHT22;50111;48.114;-2.066;2022-12-07T02:04:36;-0.70;99.90
63931;DHT22;50111;48.114;-2.066;2022-12-07T02:07:02;-0.70;99.90
63931;DHT22;50111;48.114;-2.066;2022-12-07T02:09:28;-0.80;99.90
63931;DHT22;50111;48.114;-2.066;2022-12-07T02:11:55;-0.80;99.90
63931;DHT22;50111;48.114;-2.066;2022-12-07T02:14:21;-0.90;99.90
63931;DHT22;50111;48.114;-2.066;2022-12-07T02:19:51;-0.90;99.90
63931;DHT22;50111;48.114;-2.066;2022-12-07T02:22:28;-0.80;99.90
63931;DHT22;50111;48.114;-2.066;2022-12-07T02:30:45;-0.80;99.90
63931;DHT22;50111;48.114;-2.066;2022-12-07T02:35:52;-0.90;99.90
63931;DHT22;50111;48.114;-2.066;2022-12-07T02:38:37;-1.00;99.90
63931;DHT22;50111;48.114;-2.066;2022-12-07T02:41:17;-1.00;99.90
63931;DHT22;50111;48.114;-2.066;2022-12-07T02:43:50;-1.10;99.90
63931;DHT22;50111;48.114;-2.066;2022-12-07T02:46:27;-1.00;99.90
63931;DHT22;50111;48.114;-2.066;2022-12-07T02:48:54;-1.10;99.90
63931;DHT22;50111;48.114;-2.066;2022-12-07T02:51:21;-1.20;99.90
63931;DHT22;50111;48.114;-2.066;2022-12-07T02:53:47;-1.10;99.90
63931;DHT22;50111;48.114;-2.066;2022-12-07T03:01:40;-1.10;99.90
63931;DHT22;50111;48.114;-2.066;2022-12-07T03:04:32;-1.10;99.90
63931;DHT22;50111;48.114;-2.066;2022-12-07T03:07:11;-1.10;99.90
63931;DHT22;50111;48.114;-2.066;2022-12-07T03:09:52;-1.10;99.90
63931;DHT22;50111;48.114;-2.066;2022-12-07T03:12:28;-1.00;99.90
63931;DHT22;50111;48.114;-2.066;2022-12-07T03:15:20;-0.80;99.90
63931;DHT22;50111;48.114;-2.066;2022-12-07T03:17:47;-0.80;99.90
63931;DHT22;50111;48.114;-2.066;2022-12-07T03:20:16;-0.70;99.90
63931;DHT22;50111;48.114;-2.066;2022-12-07T03:22:43;-0.70;99.90
63931;DHT22;50111;48.114;-2.066;2022-12-07T03:25:14;-0.60;99.90
63931;DHT22;50111;48.114;-2.066;2022-12-07T03:30:15;-0.70;99.90
63931;DHT22;50111;48.114;-2.066;2022-12-07T03:32:46;-0.80;99.90
63931;DHT22;50111;48.114;-2.066;2022-12-07T03:35:30;-0.70;99.90
63931;DHT22;50111;48.114;-2.066;2022-12-07T03:38:17;-0.80;99.90
63931;DHT22;50111;48.114;-2.066;2022-12-07T03:41:22;-0.80;99.90
63931;DHT22;50111;48.114;-2.066;2022-12-07T03:43:40;-0.80;99.90
63931;DHT22;50111;48.114;-2.066;2022-12-07T03:46:28;-0.80;99.90
63931;DHT22;50111;48.114;-2.066;2022-12-07T03:54:34;-0.80;99.90
63931;DHT22;50111;48.114;-2.066;2022-12-07T03:57:02;-0.80;99.90
63931;DHT22;50111;48.114;-2.066;2022-12-07T03:59:30;-0.80;99.90
63931;DHT22;50111;48.114;-2.066;2022-12-07T04:02:01;-0.90;99.90
63931;DHT22;50111;48.114;-2.066;2022-12-07T04:04:27;-1.00;99.90
63931;DHT22;50111;48.114;-2.066;2022-12-07T04:06:53;-1.00;99.90
63931;DHT22;50111;48.114;-2.066;2022-12-07T04:09:19;-1.00;99.90
63931;DHT22;50111;48.114;-2.066;2022-12-07T04:11:45;-1.00;99.90
63931;DHT22;50111;48.114;-2.066;2022-12-07T04:14:11;-0.90;99.90
63931;DHT22;50111;48.114;-2.066;2022-12-07T04:16:55;-0.90;99.90
63931;DHT22;50111;48.114;-2.066;2022-12-07T04:19:28;-0.80;99.90
63931;DHT22;50111;48.114;-2.066;2022-12-07T04:21:56;-0.80;99.90
63931;DHT22;50111;48.114;-2.066;2022-12-07T04:24:22;-0.70;99.90
63931;DHT22;50111;48.114;-2.066;2022-12-07T04:26:48;-0.90;99.90
63931;DHT22;50111;48.114;-2.066;2022-12-07T04:29:14;-0.90;99.90
63931;DHT22;50111;48.114;-2.066;2022-12-07T04:31:40;-1.00;99.90
63931;DHT22;50111;48.114;-2.066;2022-12-07T04:34:06;-1.00;99.90
63931;DHT22;50111;48.114;-2.066;2022-12-07T04:36:32;-1.00;99.90
63931;DHT22;50111;48.114;-2.066;2022-12-07T04:39:00;-1.10;99.90
63931;DHT22;50111;48.114;-2.066;2022-12-07T04:41:26;-1.10;99.90
63931;DHT22;50111;48.114;-2.066;2022-12-07T04:44:00;-1.00;99.90
63931;DHT22;50111;48.114;-2.066;2022-12-07T04:46:26;-1.00;99.90
63931;DHT22;50111;48.114;-2.066;2022-12-07T04:48:53;-1.00;99.90
63931;DHT22;50111;48.114;-2.066;2022-12-07T04:51:24;-1.00;99.90
63931;DHT22;50111;48.114;-2.066;2022-12-07T04:53:51;-1.10;99.90
63931;DHT22;50111;48.114;-2.066;2022-12-07T04:56:17;-1.10;99.90
63931;DHT22;50111;48.114;-2.066;2022-12-07T04:58:44;-1.20;99.90
63931;DHT22;50111;48.114;-2.066;2022-12-07T05:01:10;-1.30;99.90
63931;DHT22;50111;48.114;-2.066;2022-12-07T05:03:37;-1.30;99.90
63931;DHT22;50111;48.114;-2.066;2022-12-07T05:06:03;-1.30;99.90
63931;DHT22;50111;48.114;-2.066;2022-12-07T05:08:29;-1.30;99.90
63931;DHT22;50111;48.114;-2.066;2022-12-07T05:10:54;-1.30;99.90
63931;DHT22;50111;48.114;-2.066;2022-12-07T05:13:20;-1.40;99.90
63931;DHT22;50111;48.114;-2.066;2022-12-07T05:15:47;-1.30;99.90
63931;DHT22;50111;48.114;-2.066;2022-12-07T05:18:13;-1.30;99.90
63931;DHT22;50111;48.114;-2.066;2022-12-07T05:20:40;-1.30;99.90
63931;DHT22;50111;48.114;-2.066;2022-12-07T05:23:05;-1.30;99.90
63931;DHT22;50111;48.114;-2.066;2022-12-07T05:25:31;-1.30;99.90
63931;DHT22;50111;48.114;-2.066;2022-12-07T05:27:57;-1.30;99.90
63931;DHT22;50111;48.114;-2.066;2022-12-07T05:30:26;-1.30;99.90
63931;DHT22;50111;48.114;-2.066;2022-12-07T05:32:52;-1.30;99.90
63931;DHT22;50111;48.114;-2.066;2022-12-07T05:35:18;-1.40;99.90
63931;DHT22;50111;48.114;-2.066;2022-12-07T05:37:44;-1.40;99.90
63931;DHT22;50111;48.114;-2.066;2022-12-07T05:40:10;-1.40;99.90
63931;DHT22;50111;48.114;-2.066;2022-12-07T05:42:37;-1.40;99.90
63931;DHT22;50111;48.114;-2.066;2022-12-07T05:45:03;-1.40;99.90
63931;DHT22;50111;48.114;-2.066;2022-12-07T05:47:29;-1.50;99.90
63931;DHT22;50111;48.114;-2.066;2022-12-07T05:49:55;-1.40;99.90
63931;DHT22;50111;48.114;-2.066;2022-12-07T05:52:20;-1.40;99.90
63931;DHT22;50111;48.114;-2.066;2022-12-07T05:54:46;-1.40;99.90
63931;DHT22;50111;48.114;-2.066;2022-12-07T05:57:12;-1.40;99.90
63931;DHT22;50111;48.114;-2.066;2022-12-07T05:59:38;-1.50;99.90
63931;DHT22;50111;48.114;-2.066;2022-12-07T06:02:06;-1.60;99.90
63931;DHT22;50111;48.114;-2.066;2022-12-07T06:04:34;-1.70;99.90
63931;DHT22;50111;48.114;-2.066;2022-12-07T06:07:00;-1.70;99.90
63931;DHT22;50111;48.114;-2.066;2022-12-07T06:09:27;-1.70;99.90
63931;DHT22;50111;48.114;-2.066;2022-12-07T06:11:53;-1.70;99.90
63931;DHT22;50111;48.114;-2.066;2022-12-07T06:14:38;-1.80;99.90
63931;DHT22;50111;48.114;-2.066;2022-12-07T06:17:04;-1.70;99.90
63931;DHT22;50111;48.114;-2.066;2022-12-07T06:19:30;-1.80;99.90
63931;DHT22;50111;48.114;-2.066;2022-12-07T06:21:56;-1.80;99.90
63931;DHT22;50111;48.114;-2.066;2022-12-07T06:24:22;-1.90;99.90
63931;DHT22;50111;48.114;-2.066;2022-12-07T06:26:48;-1.90;99.90
63931;DHT22;50111;48.114;-2.066;2022-12-07T06:29:14;-2.00;99.90
63931;DHT22;50111;48.114;-2.066;2022-12-07T06:31:40;-1.90;99.90
63931;DHT22;50111;48.114;-2.066;2022-12-07T06:34:09;-2.00;99.90
63931;DHT22;50111;48.114;-2.066;2022-12-07T06:36:36;-1.90;99.90
63931;DHT22;50111;48.114;-2.066;2022-12-07T06:39:02;-2.00;99.90
63931;DHT22;50111;48.114;-2.066;2022-12-07T06:41:27;-2.00;99.90
63931;DHT22;50111;48.114;-2.066;2022-12-07T06:43:53;-2.00;99.90
63931;DHT22;50111;48.114;-2.066;2022-12-07T06:46:19;-2.00;99.90
63931;DHT22;50111;48.114;-2.066;2022-12-07T06:48:45;-1.90;99.90
63931;DHT22;50111;48.114;-2.066;2022-12-07T06:51:11;-1.80;99.90
63931;DHT22;50111;48.114;-2.066;2022-12-07T06:53:37;-1.70;99.90
63931;DHT22;50111;48.114;-2.066;2022-12-07T06:56:04;-1.90;99.90
63931;DHT22;50111;48.114;-2.066;2022-12-07T06:58:30;-2.00;99.90
63931;DHT22;50111;48.114;-2.066;2022-12-07T07:00:56;-2.00;99.90
63931;DHT22;50111;48.114;-2.066;2022-12-07T07:03:21;-2.00;99.90
63931;DHT22;50111;48.114;-2.066;2022-12-07T07:05:47;-2.00;99.90
63931;DHT22;50111;48.114;-2.066;2022-12-07T07:08:13;-1.90;99.90
63931;DHT22;50111;48.114;-2.066;2022-12-07T07:10:39;-1.90;99.90
63931;DHT22;50111;48.114;-2.066;2022-12-07T07:13:05;-2.00;99.90
63931;DHT22;50111;48.114;-2.066;2022-12-07T07:15:31;-2.00;99.90
63931;DHT22;50111;48.114;-2.066;2022-12-07T07:17:57;-2.00;99.90
63931;DHT22;50111;48.114;-2.066;2022-12-07T07:20:23;-2.00;99.90
63931;DHT22;50111;48.114;-2.066;2022-12-07T07:22:49;-2.00;99.90
63931;DHT22;50111;48.114;-2.066;2022-12-07T07:25:15;-2.00;99.90
63931;DHT22;50111;48.114;-2.066;2022-12-07T07:27:41;-2.00;99.90
63931;DHT22;50111;48.114;-2.066;2022-12-07T07:30:07;-2.00;99.90
63931;DHT22;50111;48.114;-2.066;2022-12-07T07:32:33;-1.90;99.90
63931;DHT22;50111;48.114;-2.066;2022-12-07T07:34:59;-1.60;99.90
63931;DHT22;50111;48.114;-2.066;2022-12-07T07:37:26;-1.50;99.90
63931;DHT22;50111;48.114;-2.066;2022-12-07T07:39:52;-1.30;99.90
63931;DHT22;50111;48.114;-2.066;2022-12-07T07:42:18;-1.30;99.90
63931;DHT22;50111;48.114;-2.066;2022-12-07T07:44:44;-1.30;99.90
63931;DHT22;50111;48.114;-2.066;2022-12-07T07:47:09;-1.20;99.90
63931;DHT22;50111;48.114;-2.066;2022-12-07T07:49:35;-1.20;99.90
63931;DHT22;50111;48.114;-2.066;2022-12-07T07:52:00;-1.00;99.90
63931;DHT22;50111;48.114;-2.066;2022-12-07T07:54:26;-0.80;99.90
63931;DHT22;50111;48.114;-2.066;2022-12-07T07:56:52;-0.90;99.90
63931;DHT22;50111;48.114;-2.066;2022-12-07T07:59:18;-0.70;99.90
63931;DHT22;50111;48.114;-2.066;2022-12-07T08:01:44;-0.80;99.90
63931;DHT22;50111;48.114;-2.066;2022-12-07T08:04:09;-0.70;99.90
63931;DHT22;50111;48.114;-2.066;2022-12-07T08:06:35;-0.60;99.90
63931;DHT22;50111;48.114;-2.066;2022-12-07T08:09:01;-0.60;99.90
63931;DHT22;50111;48.114;-2.066;2022-12-07T08:11:27;-0.60;99.90
63931;DHT22;50111;48.114;-2.066;2022-12-07T08:13:52;-0.50;99.90
63931;DHT22;50111;48.114;-2.066;2022-12-07T08:16:18;-0.50;99.90
63931;DHT22;50111;48.114;-2.066;2022-12-07T08:18:44;-0.40;99.90
63931;DHT22;50111;48.114;-2.066;2022-12-07T08:21:13;-0.40;99.90
63931;DHT22;50111;48.114;-2.066;2022-12-07T08:23:39;-0.30;99.90
63931;DHT22;50111;48.114;-2.066;2022-12-07T08:26:10;-0.10;99.90
63931;DHT22;50111;48.114;-2.066;2022-12-07T08:28:36;0.00;99.90
63931;DHT22;50111;48.114;-2.066;2022-12-07T08:31:09;0.00;99.90
63931;DHT22;50111;48.114;-2.066;2022-12-07T08:33:35;0.00;99.90
63931;DHT22;50111;48.114;-2.066;2022-12-07T08:36:07;0.10;99.90
63931;DHT22;50111;48.114;-2.066;2022-12-07T08:38:35;0.20;99.90
63931;DHT22;50111;48.114;-2.066;2022-12-07T08:41:01;0.30;99.90
63931;DHT22;50111;48.114;-2.066;2022-12-07T08:43:26;0.50;99.90
63931;DHT22;50111;48.114;-2.066;2022-12-07T08:46:18;0.60;99.90
63931;DHT22;50111;48.114;-2.066;2022-12-07T08:48:53;0.90;99.90
63931;DHT22;50111;48.114;-2.066;2022-12-07T08:51:21;1.00;99.90
63931;DHT22;50111;48.114;-2.066;2022-12-07T08:53:47;1.10;99.90
63931;DHT22;50111;48.114;-2.066;2022-12-07T08:56:13;1.40;99.90
63931;DHT22;50111;48.114;-2.066;2022-12-07T08:58:39;1.60;99.90
63931;DHT22;50111;48.114;-2.066;2022-12-07T09:01:05;1.60;99.90
63931;DHT22;50111;48.114;-2.066;2022-12-07T09:03:31;1.70;99.90
63931;DHT22;50111;48.114;-2.066;2022-12-07T09:05:58;1.70;99.90
63931;DHT22;50111;48.114;-2.066;2022-12-07T09:08:26;1.80;99.90
63931;DHT22;50111;48.114;-2.066;2022-12-07T09:10:53;1.80;99.90
63931;DHT22;50111;48.114;-2.066;2022-12-07T09:13:19;1.80;99.90
63931;DHT22;50111;48.114;-2.066;2022-12-07T09:15:44;1.90;99.90
63931;DHT22;50111;48.114;-2.066;2022-12-07T09:18:10;1.80;99.90
63931;DHT22;50111;48.114;-2.066;2022-12-07T09:20:35;2.10;99.90
63931;DHT22;50111;48.114;-2.066;2022-12-07T09:23:01;2.20;99.90
63931;DHT22;50111;48.114;-2.066;2022-12-07T09:25:27;2.10;99.90
63931;DHT22;50111;48.114;-2.066;2022-12-07T09:27:57;3.70;99.90
63931;DHT22;50111;48.114;-2.066;2022-12-07T09:30:24;5.90;99.90
63931;DHT22;50111;48.114;-2.066;2022-12-07T09:32:49;7.20;99.90
63931;DHT22;50111;48.114;-2.066;2022-12-07T09:35:15;7.90;99.90
63931;DHT22;50111;48.114;-2.066;2022-12-07T09:37:41;8.90;99.90
63931;DHT22;50111;48.114;-2.066;2022-12-07T09:40:07;9.30;99.90
63931;DHT22;50111;48.114;-2.066;2022-12-07T09:42:38;9.10;99.90
63931;DHT22;50111;48.114;-2.066;2022-12-07T09:45:23;9.60;99.90
63931;DHT22;50111;48.114;-2.066;2022-12-07T09:47:49;9.60;99.90
63931;DHT22;50111;48.114;-2.066;2022-12-07T09:50:21;9.40;99.90
63931;DHT22;50111;48.114;-2.066;2022-12-07T09:52:49;9.30;99.90
63931;DHT22;50111;48.114;-2.066;2022-12-07T09:55:21;9.00;99.90
63931;DHT22;50111;48.114;-2.066;2022-12-07T09:57:48;9.10;99.90
63931;DHT22;50111;48.114;-2.066;2022-12-07T10:00:19;9.10;99.90
63931;DHT22;50111;48.114;-2.066;2022-12-07T10:05:44;8.80;99.90
63931;DHT22;50111;48.114;-2.066;2022-12-07T10:08:12;8.80;99.90
63931;DHT22;50111;48.114;-2.066;2022-12-07T10:10:38;8.40;99.90
63931;DHT22;50111;48.114;-2.066;2022-12-07T10:13:10;8.00;99.90
63931;DHT22;50111;48.114;-2.066;2022-12-07T10:18:32;7.60;99.90
63931;DHT22;50111;48.114;-2.066;2022-12-07T10:21:15;7.40;99.90
63931;DHT22;50111;48.114;-2.066;2022-12-07T10:24:05;7.10;99.90
63931;DHT22;50111;48.114;-2.066;2022-12-07T10:29:16;6.50;99.90
63931;DHT22;50111;48.114;-2.066;2022-12-07T10:31:44;6.20;99.90
63931;DHT22;50111;48.114;-2.066;2022-12-07T10:34:29;5.80;99.90
63931;DHT22;50111;48.114;-2.066;2022-12-07T10:39:51;5.30;99.90
63931;DHT22;50111;48.114;-2.066;2022-12-07T10:42:25;5.10;99.90
63931;DHT22;50111;48.114;-2.066;2022-12-07T10:45:15;4.90;99.90
63931;DHT22;50111;48.114;-2.066;2022-12-07T11:01:25;4.30;99.90
63931;DHT22;50111;48.114;-2.066;2022-12-07T11:07:00;4.30;99.90
63931;DHT22;50111;48.114;-2.066;2022-12-07T11:12:28;4.20;99.90
63931;DHT22;50111;48.114;-2.066;2022-12-07T11:15:20;4.20;99.90
63931;DHT22;50111;48.114;-2.066;2022-12-07T11:21:04;4.20;99.90
63931;DHT22;50111;48.114;-2.066;2022-12-07T11:23:56;4.20;99.90
63931;DHT22;50111;48.114;-2.066;2022-12-07T11:32:15;4.30;99.90
63931;DHT22;50111;48.114;-2.066;2022-12-07T11:37:10;4.40;99.90
63931;DHT22;50111;48.114;-2.066;2022-12-07T11:39:58;4.50;99.90
63931;DHT22;50111;48.114;-2.066;2022-12-07T11:42:27;4.60;99.90
63931;DHT22;50111;48.114;-2.066;2022-12-07T11:45:23;4.70;99.90
63931;DHT22;50111;48.114;-2.066;2022-12-07T11:48:02;4.80;99.90
63931;DHT22;50111;48.114;-2.066;2022-12-07T11:50:57;4.80;99.90
63931;DHT22;50111;48.114;-2.066;2022-12-07T11:53:38;4.80;99.90
63931;DHT22;50111;48.114;-2.066;2022-12-07T12:03:48;5.00;99.90
63931;DHT22;50111;48.114;-2.066;2022-12-07T12:06:15;5.00;99.90
63931;DHT22;50111;48.114;-2.066;2022-12-07T12:12:14;5.10;99.90
63931;DHT22;50111;48.114;-2.066;2022-12-07T12:25:48;5.30;99.90
63931;DHT22;50111;48.114;-2.066;2022-12-07T12:28:28;5.30;99.90
63931;DHT22;50111;48.114;-2.066;2022-12-07T12:33:58;5.50;99.90
63931;DHT22;50111;48.114;-2.066;2022-12-07T12:46:57;5.60;99.90
63931;DHT22;50111;48.114;-2.066;2022-12-07T12:54:35;5.50;99.90
63931;DHT22;50111;48.114;-2.066;2022-12-07T12:57:24;5.50;99.90
63931;DHT22;50111;48.114;-2.066;2022-12-07T13:02:27;5.50;99.90
63931;DHT22;50111;48.114;-2.066;2022-12-07T13:10:32;5.60;99.90
63931;DHT22;50111;48.114;-2.066;2022-12-07T13:13:25;5.60;99.90
63931;DHT22;50111;48.114;-2.066;2022-12-07T13:26:04;5.70;99.90
63931;DHT22;50111;48.114;-2.066;2022-12-07T13:28:40;5.70;99.90
63931;DHT22;50111;48.114;-2.066;2022-12-07T13:33:53;5.80;99.90
63931;DHT22;50111;48.114;-2.066;2022-12-07T13:36:38;5.80;99.90
63931;DHT22;50111;48.114;-2.066;2022-12-07T13:41:42;5.50;99.90
63931;DHT22;50111;48.114;-2.066;2022-12-07T13:44:16;5.40;99.90
63931;DHT22;50111;48.114;-2.066;2022-12-07T13:46:48;5.40;99.90
63931;DHT22;50111;48.114;-2.066;2022-12-07T13:49:22;5.20;99.90
63931;DHT22;50111;48.114;-2.066;2022-12-07T13:51:48;5.20;99.90
63931;DHT22;50111;48.114;-2.066;2022-12-07T13:54:15;5.20;99.90
63931;DHT22;50111;48.114;-2.066;2022-12-07T13:56:41;5.20;99.90
63931;DHT22;50111;48.114;-2.066;2022-12-07T13:59:22;5.20;99.90
63931;DHT22;50111;48.114;-2.066;2022-12-07T14:01:49;5.30;99.90
63931;DHT22;50111;48.114;-2.066;2022-12-07T14:04:37;5.30;99.90
63931;DHT22;50111;48.114;-2.066;2022-12-07T14:07:32;5.40;99.90
63931;DHT22;50111;48.114;-2.066;2022-12-07T14:10:00;5.40;99.90
63931;DHT22;50111;48.114;-2.066;2022-12-07T14:12:28;5.50;99.90
63931;DHT22;50111;48.114;-2.066;2022-12-07T14:14:55;5.50;99.90
63931;DHT22;50111;48.114;-2.066;2022-12-07T14:17:25;5.50;99.90
63931;DHT22;50111;48.114;-2.066;2022-12-07T14:20:02;5.40;99.90
63931;DHT22;50111;48.114;-2.066;2022-12-07T14:22:34;5.40;99.90
63931;DHT22;50111;48.114;-2.066;2022-12-07T14:27:32;5.40;99.90
63931;DHT22;50111;48.114;-2.066;2022-12-07T14:30:03;5.40;99.90
63931;DHT22;50111;48.114;-2.066;2022-12-07T14:32:29;5.30;99.90
63931;DHT22;50111;48.114;-2.066;2022-12-07T14:35:12;5.30;99.90
63931;DHT22;50111;48.114;-2.066;2022-12-07T14:37:40;5.30;99.90
63931;DHT22;50111;48.114;-2.066;2022-12-07T14:40:07;5.40;99.90
63931;DHT22;50111;48.114;-2.066;2022-12-07T14:42:34;5.40;99.90
63931;DHT22;50111;48.114;-2.066;2022-12-07T14:45:00;5.40;99.90
63931;DHT22;50111;48.114;-2.066;2022-12-07T14:47:26;5.40;99.90
63931;DHT22;50111;48.114;-2.066;2022-12-07T14:49:52;5.40;99.90
63931;DHT22;50111;48.114;-2.066;2022-12-07T14:52:29;5.40;99.90
63931;DHT22;50111;48.114;-2.066;2022-12-07T14:54:55;5.40;99.90
63931;DHT22;50111;48.114;-2.066;2022-12-07T14:57:23;5.30;99.90
63931;DHT22;50111;48.114;-2.066;2022-12-07T14:59:49;5.40;99.90
63931;DHT22;50111;48.114;-2.066;2022-12-07T15:02:16;5.40;99.90
63931;DHT22;50111;48.114;-2.066;2022-12-07T15:04:42;5.50;99.90
63931;DHT22;50111;48.114;-2.066;2022-12-07T15:07:25;5.60;99.90
63931;DHT22;50111;48.114;-2.066;2022-12-07T15:09:51;5.60;99.90
63931;DHT22;50111;48.114;-2.066;2022-12-07T15:12:17;5.50;99.90
63931;DHT22;50111;48.114;-2.066;2022-12-07T15:14:43;5.40;99.90
63931;DHT22;50111;48.114;-2.066;2022-12-07T15:17:10;5.30;99.90
63931;DHT22;50111;48.114;-2.066;2022-12-07T15:19:36;5.20;99.90
63931;DHT22;50111;48.114;-2.066;2022-12-07T15:22:01;5.00;99.90
63931;DHT22;50111;48.114;-2.066;2022-12-07T15:24:27;4.90;99.90
63931;DHT22;50111;48.114;-2.066;2022-12-07T15:26:53;4.90;99.90
63931;DHT22;50111;48.114;-2.066;2022-12-07T15:29:18;4.90;99.90
63931;DHT22;50111;48.114;-2.066;2022-12-07T15:31:44;4.90;99.90
63931;DHT22;50111;48.114;-2.066;2022-12-07T15:34:10;4.90;99.90
63931;DHT22;50111;48.114;-2.066;2022-12-07T15:36:36;4.80;99.90
63931;DHT22;50111;48.114;-2.066;2022-12-07T15:39:02;4.50;99.90
63931;DHT22;50111;48.114;-2.066;2022-12-07T15:41:28;4.30;99.90
63931;DHT22;50111;48.114;-2.066;2022-12-07T15:43:54;4.10;99.90
63931;DHT22;50111;48.114;-2.066;2022-12-07T15:46:41;3.90;99.90
63931;DHT22;50111;48.114;-2.066;2022-12-07T15:49:16;3.80;99.90
63931;DHT22;50111;48.114;-2.066;2022-12-07T15:51:43;3.70;99.90
63931;DHT22;50111;48.114;-2.066;2022-12-07T15:54:20;3.70;99.90
63931;DHT22;50111;48.114;-2.066;2022-12-07T15:56:46;3.60;99.90
63931;DHT22;50111;48.114;-2.066;2022-12-07T15:59:11;3.50;99.90
63931;DHT22;50111;48.114;-2.066;2022-12-07T16:01:37;3.30;99.90
63931;DHT22;50111;48.114;-2.066;2022-12-07T16:04:03;3.20;99.90
63931;DHT22;50111;48.114;-2.066;2022-12-07T16:06:29;3.10;99.90
63931;DHT22;50111;48.114;-2.066;2022-12-07T16:08:54;3.00;99.90
63931;DHT22;50111;48.114;-2.066;2022-12-07T16:11:20;2.90;99.90
63931;DHT22;50111;48.114;-2.066;2022-12-07T16:13:46;2.80;99.90
63931;DHT22;50111;48.114;-2.066;2022-12-07T16:16:14;2.70;99.90
63931;DHT22;50111;48.114;-2.066;2022-12-07T16:18:42;2.70;99.90
63931;DHT22;50111;48.114;-2.066;2022-12-07T16:21:08;2.80;99.90
63931;DHT22;50111;48.114;-2.066;2022-12-07T16:23:34;2.70;99.90
63931;DHT22;50111;48.114;-2.066;2022-12-07T16:26:08;2.70;99.90
63931;DHT22;50111;48.114;-2.066;2022-12-07T16:28:34;2.60;99.90
63931;DHT22;50111;48.114;-2.066;2022-12-07T16:31:11;2.50;99.90
63931;DHT22;50111;48.114;-2.066;2022-12-07T16:33:38;2.30;99.90
63931;DHT22;50111;48.114;-2.066;2022-12-07T16:36:05;2.20;99.90
63931;DHT22;50111;48.114;-2.066;2022-12-07T16:38:32;2.10;99.90
63931;DHT22;50111;48.114;-2.066;2022-12-07T16:40:58;2.10;99.90
63931;DHT22;50111;48.114;-2.066;2022-12-07T16:43:23;2.10;99.90
63931;DHT22;50111;48.114;-2.066;2022-12-07T16:45:50;2.10;99.90
63931;DHT22;50111;48.114;-2.066;2022-12-07T16:48:17;1.90;99.90
63931;DHT22;50111;48.114;-2.066;2022-12-07T16:50:43;1.90;99.90
63931;DHT22;50111;48.114;-2.066;2022-12-07T16:53:10;2.00;99.90
63931;DHT22;50111;48.114;-2.066;2022-12-07T16:55:44;2.00;99.90
63931;DHT22;50111;48.114;-2.066;2022-12-07T16:58:13;2.00;99.90
63931;DHT22;50111;48.114;-2.066;2022-12-07T17:00:40;1.70;99.90
63931;DHT22;50111;48.114;-2.066;2022-12-07T17:03:06;1.60;99.90
63931;DHT22;50111;48.114;-2.066;2022-12-07T17:05:32;1.60;99.90
63931;DHT22;50111;48.114;-2.066;2022-12-07T17:07:58;1.60;99.90
63931;DHT22;50111;48.114;-2.066;2022-12-07T17:10:24;1.50;99.90
63931;DHT22;50111;48.114;-2.066;2022-12-07T17:12:51;1.60;99.90
63931;DHT22;50111;48.114;-2.066;2022-12-07T17:15:18;1.60;99.90
63931;DHT22;50111;48.114;-2.066;2022-12-07T17:17:57;1.60;99.90
63931;DHT22;50111;48.114;-2.066;2022-12-07T17:20:25;1.50;99.90
63931;DHT22;50111;48.114;-2.066;2022-12-07T17:22:51;1.50;99.90
63931;DHT22;50111;48.114;-2.066;2022-12-07T17:25:18;1.50;99.90
63931;DHT22;50111;48.114;-2.066;2022-12-07T17:27:45;1.60;99.90
63931;DHT22;50111;48.114;-2.066;2022-12-07T17:30:12;1.50;99.90
63931;DHT22;50111;48.114;-2.066;2022-12-07T17:32:38;1.40;99.90
63931;DHT22;50111;48.114;-2.066;2022-12-07T17:35:05;1.30;99.90
63931;DHT22;50111;48.114;-2.066;2022-12-07T17:37:31;1.20;99.90
63931;DHT22;50111;48.114;-2.066;2022-12-07T17:39:57;1.10;99.90
63931;DHT22;50111;48.114;-2.066;2022-12-07T17:42:24;1.00;99.90
63931;DHT22;50111;48.114;-2.066;2022-12-07T17:45:11;1.00;99.90
63931;DHT22;50111;48.114;-2.066;2022-12-07T17:47:37;0.90;99.90
63931;DHT22;50111;48.114;-2.066;2022-12-07T17:50:05;0.90;99.90
63931;DHT22;50111;48.114;-2.066;2022-12-07T17:52:31;0.90;99.90
63931;DHT22;50111;48.114;-2.066;2022-12-07T17:55:15;0.80;99.90